Time;durP1;ratioP1;P1;durP2;ratioP2;P2;SDS_P1;SDS_P2;PMS_P1;PMS_P2;Temp;Humidity;BMP_temperature;BMP_pressure;BME280_temperature;BME280_humidity;BME280_pressure;Samples;Min_cycle;Max_cycle;Signal;HPM_P1;HPM_P2
2024/03/31 00:00:35;;;;;;;9.77;3.12;;;;;;;;;;4338533;32;317338;-77
2024/03/31 00:03:02;;;;;;;7.30;3.22;;;;;;;;;;4339641;32;317547;-77
2024/03/31 00:05:28;;;;;;;14.07;6.95;;;;;;;;;;4315621;33;317557;-77
2024/03/31 00:07:54;;;;;;;10.48;4.28;;;;;;;;;;4331587;33;318449;-77
2024/03/31 00:10:20;;;;;;;8.57;3.40;;;;;;;;;;4330961;32;318185;-77
2024/03/31 00:12:48;;;;;;;9.57;3.55;;;;;;;;;;4347752;32;317396;-77
2024/03/31 00:15:14;;;;;;;6.68;3.37;;;;;;;;;;4337213;32;317377;-77
2024/03/31 00:17:40;;;;;;;8.65;3.50;;;;;;;;;;4340647;32;317138;-77
2024/03/31 00:20:06;;;;;;;12.32;5.18;;;;;;;;;;4348742;32;317316;-77
2024/03/31 00:22:33;;;;;;;15.98;6.85;;;;;;;;;;4340534;32;318101;-77
2024/03/31 00:24:59;;;;;;;17.62;8.10;;;;;;;;;;4350285;32;318342;-77
2024/03/31 00:27:26;;;;;;;43.60;12.57;;;;;;;;;;4333776;32;318238;-77
2024/03/31 00:29:53;;;;;;;16.27;6.90;;;;;;;;;;4350265;32;319358;-77
2024/03/31 00:32:19;;;;;;;7.90;4.00;;;;;;;;;;4338890;32;358800;-77
2024/03/31 00:34:45;;;;;;;13.43;3.33;;;;;;;;;;4346162;32;317178;-77
2024/03/31 00:37:12;;;;;;;10.35;2.97;;;;;;;;;;4326053;32;318247;-77
2024/03/31 00:39:38;;;;;;;6.47;2.65;;;;;;;;;;4328306;32;318765;-77
2024/03/31 00:42:05;;;;;;;8.93;2.70;;;;;;;;;;4334646;32;317139;-77
2024/03/31 00:44:31;;;;;;;5.10;2.20;;;;;;;;;;4324871;32;317320;-77
2024/03/31 00:46:59;;;;;;;7.53;2.62;;;;;;;;;;4332749;32;335908;-77
2024/03/31 00:49:24;;;;;;;10.05;3.30;;;;;;;;;;4323741;32;317224;-77
2024/03/31 00:51:52;;;;;;;12.20;2.87;;;;;;;;;;4331092;32;318420;-77
2024/03/31 00:54:17;;;;;;;9.00;2.22;;;;;;;;;;4325377;32;318311;-77
2024/03/31 00:56:44;;;;;;;6.80;2.58;;;;;;;;;;4335331;32;317260;-77
2024/03/31 00:59:10;;;;;;;6.37;3.00;;;;;;;;;;4334399;32;317453;-77
2024/03/31 01:01:37;;;;;;;9.88;3.17;;;;;;;;;;4317163;32;317410;-77
2024/03/31 01:04:04;;;;;;;10.45;3.30;;;;;;;;;;4335102;32;317364;-77
2024/03/31 01:06:31;;;;;;;9.25;3.30;;;;;;;;;;4324349;32;318721;-77
2024/03/31 01:08:56;;;;;;;8.48;3.67;;;;;;;;;;4334977;32;317862;-78
2024/03/31 01:11:24;;;;;;;6.05;2.60;;;;;;;;;;4325376;32;317408;-78
2024/03/31 01:13:50;;;;;;;7.43;3.25;;;;;;;;;;4330029;32;317340;-78
2024/03/31 01:16:17;;;;;;;9.57;4.57;;;;;;;;;;4325611;32;317093;-78
2024/03/31 01:18:43;;;;;;;10.70;5.05;;;;;;;;;;4334566;32;317731;-78
2024/03/31 01:21:13;;;;;;;8.23;3.78;;;;;;;;;;4334893;32;317611;-78
2024/03/31 01:23:50;;;;;;;6.82;3.30;;;;;;;;;;4318683;32;317295;-78
2024/03/31 01:26:17;;;;;;;25.20;11.77;;;;;;;;;;4325404;32;317260;-78
2024/03/31 01:28:42;;;;;;;12.98;7.68;;;;;;;;;;4337518;32;319471;-77
2024/03/31 01:31:09;;;;;;;13.70;6.65;;;;;;;;;;4347060;32;318473;-78
2024/03/31 01:33:35;;;;;;;21.73;6.87;;;;;;;;;;4332780;32;318373;-77
2024/03/31 01:36:02;;;;;;;17.50;9.57;;;;;;;;;;4349774;32;318134;-77
2024/03/31 01:38:28;;;;;;;13.27;7.53;;;;;;;;;;4338557;32;318605;-77
2024/03/31 01:40:56;;;;;;;9.35;4.90;;;;;;;;;;4346731;32;318588;-77
2024/03/31 01:43:22;;;;;;;10.85;5.37;;;;;;;;;;4339348;32;317277;-77
2024/03/31 01:45:49;;;;;;;9.07;3.80;;;;;;;;;;4343564;32;318640;-78
2024/03/31 01:48:15;;;;;;;7.62;4.32;;;;;;;;;;4333551;32;317565;-78
2024/03/31 01:50:41;;;;;;;9.10;3.80;;;;;;;;;;4346839;32;317108;-78
2024/03/31 01:53:07;;;;;;;17.70;6.45;;;;;;;;;;4348389;32;317113;-78
2024/03/31 01:55:34;;;;;;;8.50;3.95;;;;;;;;;;4332331;32;318535;-77
2024/03/31 01:58:01;;;;;;;11.07;3.00;;;;;;;;;;4348202;32;317367;-77
2024/03/31 02:00:28;;;;;;;7.65;2.95;;;;;;;;;;4338544;32;318408;-77
2024/03/31 02:02:53;;;;;;;6.45;2.80;;;;;;;;;;4341490;32;317046;-77
2024/03/31 02:05:20;;;;;;;7.10;2.67;;;;;;;;;;4323643;32;338815;-77
2024/03/31 02:07:46;;;;;;;9.38;2.40;;;;;;;;;;4326280;32;317546;-77
2024/03/31 02:10:12;;;;;;;11.10;2.67;;;;;;;;;;4332587;32;317255;-77
2024/03/31 02:12:38;;;;;;;4.53;2.47;;;;;;;;;;4324115;32;318366;-76
2024/03/31 02:15:07;;;;;;;12.35;2.62;;;;;;;;;;4334335;32;317579;-77
2024/03/31 02:17:32;;;;;;;4.20;2.37;;;;;;;;;;4317135;32;333180;-77
2024/03/31 02:19:59;;;;;;;4.65;2.65;;;;;;;;;;4334286;32;316523;-77
2024/03/31 02:22:25;;;;;;;9.70;2.47;;;;;;;;;;4322916;32;317322;-77
2024/03/31 02:24:52;;;;;;;7.50;2.40;;;;;;;;;;4338575;32;317370;-76
2024/03/31 02:27:17;;;;;;;6.68;3.25;;;;;;;;;;4336514;32;317244;-76
2024/03/31 02:29:44;;;;;;;9.60;4.43;;;;;;;;;;4342024;32;317219;-76
2024/03/31 02:32:11;;;;;;;13.60;3.87;;;;;;;;;;4347264;32;317281;-77
2024/03/31 02:34:38;;;;;;;13.30;4.72;;;;;;;;;;4335591;32;318411;-77
2024/03/31 02:37:04;;;;;;;17.98;7.70;;;;;;;;;;4345467;32;317813;-77
2024/03/31 02:39:30;;;;;;;22.50;10.00;;;;;;;;;;4329727;32;354171;-77
2024/03/31 02:41:56;;;;;;;21.00;14.35;;;;;;;;;;4347002;32;325781;-77
2024/03/31 02:44:23;;;;;;;24.20;12.10;;;;;;;;;;4335380;32;356228;-77
2024/03/31 02:46:49;;;;;;;13.62;7.72;;;;;;;;;;4346684;32;319284;-77
2024/03/31 02:49:17;;;;;;;11.00;4.85;;;;;;;;;;4332572;32;318514;-77
2024/03/31 02:51:44;;;;;;;10.32;5.53;;;;;;;;;;4341149;32;318176;-77
2024/03/31 02:54:10;;;;;;;9.55;4.30;;;;;;;;;;4347022;32;318028;-77
2024/03/31 02:56:36;;;;;;;9.52;4.95;;;;;;;;;;4337030;32;317307;-77
2024/03/31 02:59:02;;;;;;;7.93;4.03;;;;;;;;;;4344935;32;316468;-77
2024/03/31 03:01:29;;;;;;;18.12;4.18;;;;;;;;;;4314186;32;317239;-77
2024/03/31 03:03:54;;;;;;;6.68;4.15;;;;;;;;;;4342540;32;318156;-77
2024/03/31 03:06:23;;;;;;;8.02;3.78;;;;;;;;;;4375753;32;20217;-77
2024/03/31 03:08:48;;;;;;;7.57;4.32;;;;;;;;;;4375477;32;20253;-77
2024/03/31 03:11:15;;;;;;;8.77;3.65;;;;;;;;;;4354083;32;316204;-77
2024/03/31 03:13:43;;;;;;;6.40;3.45;;;;;;;;;;4320501;32;317020;-77
2024/03/31 03:16:09;;;;;;;11.10;4.22;;;;;;;;;;4329924;32;317187;-77
2024/03/31 03:18:35;;;;;;;9.32;4.90;;;;;;;;;;4321407;32;318355;-77
2024/03/31 03:21:02;;;;;;;11.52;3.70;;;;;;;;;;4340796;32;317196;-77
2024/03/31 03:23:31;;;;;;;8.93;3.75;;;;;;;;;;4334034;32;318219;-77
2024/03/31 03:25:59;;;;;;;10.90;4.35;;;;;;;;;;4342130;32;317109;-77
2024/03/31 03:28:24;;;;;;;9.57;4.85;;;;;;;;;;4374814;32;20249;-77
2024/03/31 03:30:51;;;;;;;18.58;7.53;;;;;;;;;;4375899;32;20272;-77
2024/03/31 03:33:17;;;;;;;18.10;6.47;;;;;;;;;;4375398;32;20257;-77
2024/03/31 03:35:44;;;;;;;22.52;6.53;;;;;;;;;;4375476;32;20756;-77
2024/03/31 03:38:10;;;;;;;16.02;5.70;;;;;;;;;;4375188;32;20276;-77
2024/03/31 03:40:38;;;;;;;14.18;6.25;;;;;;;;;;4375444;32;20283;-77
2024/03/31 03:43:05;;;;;;;24.80;7.12;;;;;;;;;;4369008;32;20238;-78
2024/03/31 03:45:32;;;;;;;17.15;5.97;;;;;;;;;;4374314;32;20270;-77
2024/03/31 03:47:57;;;;;;;25.95;7.68;;;;;;;;;;4364440;32;20242;-77
2024/03/31 03:50:25;;;;;;;10.02;6.70;;;;;;;;;;4360628;32;20549;-77
2024/03/31 03:52:52;;;;;;;14.13;6.35;;;;;;;;;;4375285;32;20591;-77
2024/03/31 03:55:19;;;;;;;18.00;9.35;;;;;;;;;;4377870;32;20645;-77
2024/03/31 03:57:46;;;;;;;25.02;6.32;;;;;;;;;;4378240;32;20595;-77
2024/03/31 04:00:13;;;;;;;13.32;5.97;;;;;;;;;;4378248;32;20248;-77
2024/03/31 04:02:39;;;;;;;16.75;6.00;;;;;;;;;;4372241;32;20356;-77
2024/03/31 04:05:06;;;;;;;17.80;6.65;;;;;;;;;;4363892;32;20565;-77
2024/03/31 04:07:31;;;;;;;17.33;6.18;;;;;;;;;;4377564;32;20252;-77
2024/03/31 04:09:58;;;;;;;14.90;4.82;;;;;;;;;;4378758;32;20600;-77
2024/03/31 04:12:24;;;;;;;12.40;4.57;;;;;;;;;;4378026;32;20320;-77
2024/03/31 04:14:52;;;;;;;10.75;4.53;;;;;;;;;;4378130;32;20308;-77
2024/03/31 04:17:17;;;;;;;10.32;5.03;;;;;;;;;;4377919;32;20210;-77
2024/03/31 04:19:44;;;;;;;7.28;3.15;;;;;;;;;;4377611;32;20374;-77
2024/03/31 04:22:10;;;;;;;11.12;3.37;;;;;;;;;;4378355;32;20237;-77
2024/03/31 04:24:36;;;;;;;6.15;3.30;;;;;;;;;;4377863;32;20388;-77
2024/03/31 04:27:02;;;;;;;5.55;3.00;;;;;;;;;;4377976;32;20304;-77
2024/03/31 04:29:29;;;;;;;13.15;5.20;;;;;;;;;;4365346;32;20246;-77
2024/03/31 04:31:57;;;;;;;12.65;5.20;;;;;;;;;;4363113;32;20239;-77
2024/03/31 04:34:27;;;;;;;12.68;3.75;;;;;;;;;;4363013;32;21011;-77
2024/03/31 04:36:54;;;;;;;15.32;5.60;;;;;;;;;;4363223;32;20218;-77
2024/03/31 04:39:21;;;;;;;19.52;4.35;;;;;;;;;;4362877;32;20258;-77
2024/03/31 04:41:47;;;;;;;14.52;5.15;;;;;;;;;;4362784;32;20289;-77
2024/03/31 04:44:14;;;;;;;13.82;5.93;;;;;;;;;;4362783;32;20784;-77
2024/03/31 04:46:40;;;;;;;19.70;5.50;;;;;;;;;;4362447;32;20215;-77
2024/03/31 04:49:08;;;;;;;12.80;4.40;;;;;;;;;;4362582;32;20397;-77
2024/03/31 04:51:34;;;;;;;11.32;4.87;;;;;;;;;;4363126;32;20210;-77
2024/03/31 04:54:00;;;;;;;10.50;5.37;;;;;;;;;;4362678;32;20256;-77
2024/03/31 04:56:26;;;;;;;12.20;5.22;;;;;;;;;;4363072;32;20214;-77
2024/03/31 04:58:53;;;;;;;14.63;5.40;;;;;;;;;;4362587;32;20297;-77
2024/03/31 05:01:18;;;;;;;17.42;5.35;;;;;;;;;;4362648;32;20671;-77
2024/03/31 05:03:45;;;;;;;12.30;6.68;;;;;;;;;;4362554;32;20249;-77
2024/03/31 05:06:12;;;;;;;12.25;6.03;;;;;;;;;;4362519;32;20281;-78
2024/03/31 05:08:39;;;;;;;18.27;7.70;;;;;;;;;;4362712;32;20327;-76
2024/03/31 05:11:04;;;;;;;25.37;10.30;;;;;;;;;;4362789;32;20242;-76
2024/03/31 05:13:32;;;;;;;24.42;9.93;;;;;;;;;;4362505;32;20320;-76
2024/03/31 05:15:58;;;;;;;33.53;12.37;;;;;;;;;;4363146;32;20238;-76
2024/03/31 05:18:25;;;;;;;32.67;12.25;;;;;;;;;;4362203;32;20255;-76
2024/03/31 05:20:55;;;;;;;23.05;10.10;;;;;;;;;;4362755;32;20234;-76
2024/03/31 05:23:24;;;;;;;27.40;10.20;;;;;;;;;;4362364;32;20230;-76
2024/03/31 05:25:50;;;;;;;24.58;10.77;;;;;;;;;;4362196;32;20288;-77
2024/03/31 05:28:17;;;;;;;21.02;8.43;;;;;;;;;;4366827;32;20242;-78
2024/03/31 05:30:43;;;;;;;16.12;8.43;;;;;;;;;;4376191;32;20321;-78
2024/03/31 05:33:09;;;;;;;22.13;11.32;;;;;;;;;;4376695;32;20800;-78
2024/03/31 05:35:35;;;;;;;23.30;10.25;;;;;;;;;;4377035;32;20269;-78
2024/03/31 05:38:02;;;;;;;32.45;11.57;;;;;;;;;;4376950;32;20326;-77
2024/03/31 05:40:29;;;;;;;22.90;10.18;;;;;;;;;;4377356;32;20237;-77
2024/03/31 05:42:56;;;;;;;19.20;10.00;;;;;;;;;;4376855;32;20261;-78
2024/03/31 05:45:22;;;;;;;22.85;11.12;;;;;;;;;;4376938;32;20418;-77
2024/03/31 05:47:48;;;;;;;21.23;9.88;;;;;;;;;;4376289;32;20235;-78
2024/03/31 05:50:14;;;;;;;32.40;10.70;;;;;;;;;;4375253;32;20280;-78
2024/03/31 05:52:41;;;;;;;25.27;9.93;;;;;;;;;;4374512;32;20707;-78
2024/03/31 05:55:06;;;;;;;32.47;15.32;;;;;;;;;;4374901;32;20241;-78
2024/03/31 05:57:34;;;;;;;45.20;18.62;;;;;;;;;;4374563;32;20365;-78
2024/03/31 06:00:00;;;;;;;42.97;16.58;;;;;;;;;;4374281;32;20529;-78
2024/03/31 06:02:27;;;;;;;43.05;18.20;;;;;;;;;;4373683;32;20291;-78
2024/03/31 06:04:57;;;;;;;30.60;14.23;;;;;;;;;;4375318;32;20214;-77
2024/03/31 06:07:23;;;;;;;31.12;11.75;;;;;;;;;;4375806;32;20218;-78
2024/03/31 06:09:50;;;;;;;21.58;10.27;;;;;;;;;;4369117;32;20254;-77
2024/03/31 06:12:18;;;;;;;21.12;10.73;;;;;;;;;;4374776;32;20242;-79
2024/03/31 06:14:50;;;;;;;24.98;9.88;;;;;;;;;;4374030;32;20339;-76
2024/03/31 06:17:18;;;;;;;24.30;10.40;;;;;;;;;;4360045;32;20334;-76
2024/03/31 06:19:45;;;;;;;16.27;9.55;;;;;;;;;;4359516;32;20384;-78
2024/03/31 06:22:13;;;;;;;19.02;10.27;;;;;;;;;;4360001;32;20882;-79
2024/03/31 06:24:40;;;;;;;20.08;10.23;;;;;;;;;;4359719;32;20285;-77
2024/03/31 06:27:07;;;;;;;23.30;7.97;;;;;;;;;;4366938;32;20670;-80
2024/03/31 06:29:33;;;;;;;18.98;9.65;;;;;;;;;;4373412;32;20241;-78
2024/03/31 06:32:03;;;;;;;21.75;12.25;;;;;;;;;;4373052;32;20250;-78
2024/03/31 06:34:28;;;;;;;26.52;11.88;;;;;;;;;;4371387;32;20319;-78
2024/03/31 06:36:55;;;;;;;23.30;13.07;;;;;;;;;;4358152;32;20219;-79
2024/03/31 06:39:22;;;;;;;27.65;10.90;;;;;;;;;;4371854;32;20252;-80
2024/03/31 06:41:50;;;;;;;20.20;11.23;;;;;;;;;;4372083;32;20790;-78
2024/03/31 06:44:17;;;;;;;23.23;10.80;;;;;;;;;;4356597;32;20269;-80
2024/03/31 06:46:45;;;;;;;25.77;10.68;;;;;;;;;;4373427;32;20910;-79
2024/03/31 06:49:14;;;;;;;29.90;12.80;;;;;;;;;;4373093;32;20294;-79
2024/03/31 06:51:41;;;;;;;36.45;12.88;;;;;;;;;;4373046;32;20866;-79
2024/03/31 06:54:07;;;;;;;28.73;12.18;;;;;;;;;;4373302;32;20746;-79
2024/03/31 06:56:38;;;;;;;22.08;12.40;;;;;;;;;;4372747;32;20315;-79
2024/03/31 06:59:04;;;;;;;26.40;12.18;;;;;;;;;;4373655;32;20655;-79
2024/03/31 07:01:34;;;;;;;27.08;10.98;;;;;;;;;;4373036;32;20242;-78
2024/03/31 07:04:00;;;;;;;20.62;11.23;;;;;;;;;;4374718;32;20304;-78
2024/03/31 07:06:28;;;;;;;29.87;13.18;;;;;;;;;;4374396;32;20254;-78
2024/03/31 07:08:55;;;;;;;33.72;13.18;;;;;;;;;;4374392;32;20663;-78
2024/03/31 07:11:22;;;;;;;23.90;11.20;;;;;;;;;;4373404;32;20315;-78
2024/03/31 07:13:48;;;;;;;20.83;11.35;;;;;;;;;;4374437;32;20785;-79
2024/03/31 07:16:23;;;;;;;18.87;10.80;;;;;;;;;;4350630;32;318606;-78
2024/03/31 07:18:49;;;;;;;19.95;10.07;;;;;;;;;;4349867;32;318564;-80
2024/03/31 07:21:16;;;;;;;19.33;10.30;;;;;;;;;;4339841;32;319177;-80
2024/03/31 07:23:51;;;;;;;22.98;11.77;;;;;;;;;;4334122;32;318571;-80
2024/03/31 07:26:18;;;;;;;22.58;11.38;;;;;;;;;;4315342;32;418969;-79
2024/03/31 07:28:43;;;;;;;29.83;10.68;;;;;;;;;;4332022;32;319473;-79
2024/03/31 07:31:11;;;;;;;19.95;9.27;;;;;;;;;;4324129;32;318973;-79
2024/03/31 07:33:38;;;;;;;22.23;9.50;;;;;;;;;;4333015;32;318342;-79
2024/03/31 07:36:07;;;;;;;27.70;8.88;;;;;;;;;;4320347;32;317562;-79
2024/03/31 07:38:32;;;;;;;23.58;8.95;;;;;;;;;;4332392;32;317604;-79
2024/03/31 07:41:00;;;;;;;18.02;8.02;;;;;;;;;;4323094;32;317715;-78
2024/03/31 07:43:27;;;;;;;21.98;8.00;;;;;;;;;;4332914;32;335013;-78
2024/03/31 07:45:54;;;;;;;31.27;8.55;;;;;;;;;;4327692;32;316421;-78
2024/03/31 07:48:20;;;;;;;14.75;7.30;;;;;;;;;;4340605;32;317729;-78
2024/03/31 07:50:48;;;;;;;14.23;6.82;;;;;;;;;;4346756;32;317584;-78
2024/03/31 07:53:15;;;;;;;17.20;6.78;;;;;;;;;;4336444;32;318194;-78
2024/03/31 07:55:42;;;;;;;13.80;6.80;;;;;;;;;;4347088;32;316480;-78
2024/03/31 07:58:11;;;;;;;20.75;6.37;;;;;;;;;;4330553;32;317881;-77
2024/03/31 08:00:41;;;;;;;16.25;5.82;;;;;;;;;;4348571;32;316797;-77
2024/03/31 08:03:13;;;;;;;17.83;5.37;;;;;;;;;;4328785;32;345351;-77
2024/03/31 08:05:43;;;;;;;17.10;5.68;;;;;;;;;;4341551;32;331400;-79
2024/03/31 08:08:10;;;;;;;16.40;5.07;;;;;;;;;;4331891;32;318247;-78
2024/03/31 08:10:37;;;;;;;14.50;4.60;;;;;;;;;;4348518;32;318181;-78
2024/03/31 08:13:04;;;;;;;11.45;4.93;;;;;;;;;;4323951;32;318315;-78
2024/03/31 08:15:33;;;;;;;12.98;4.80;;;;;;;;;;4335894;32;317974;-79
2024/03/31 08:17:59;;;;;;;15.82;5.35;;;;;;;;;;4338197;32;318182;-78
2024/03/31 08:20:26;;;;;;;14.50;4.82;;;;;;;;;;4323826;32;317814;-78
2024/03/31 08:22:52;;;;;;;11.77;4.45;;;;;;;;;;4335412;32;317881;-78
2024/03/31 08:25:19;;;;;;;11.70;4.70;;;;;;;;;;4318012;32;373762;-77
2024/03/31 08:27:46;;;;;;;12.02;4.00;;;;;;;;;;4330556;32;316728;-77
2024/03/31 08:30:13;;;;;;;10.35;5.28;;;;;;;;;;4315286;32;318391;-77
2024/03/31 08:32:40;;;;;;;13.62;5.10;;;;;;;;;;4336799;32;317662;-77
2024/03/31 08:35:08;;;;;;;13.75;5.22;;;;;;;;;;4338485;32;318381;-78
2024/03/31 08:37:33;;;;;;;21.52;9.30;;;;;;;;;;4347012;32;318344;-78
2024/03/31 08:40:00;;;;;;;18.35;7.30;;;;;;;;;;4337250;32;318335;-78
2024/03/31 08:42:33;;;;;;;14.80;5.00;;;;;;;;;;4345798;32;317290;-78
2024/03/31 08:45:02;;;;;;;16.93;4.47;;;;;;;;;;4339842;32;333285;-79
2024/03/31 08:47:29;;;;;;;7.95;3.25;;;;;;;;;;4346890;32;318442;-79
2024/03/31 08:49:59;;;;;;;10.88;5.12;;;;;;;;;;4340618;32;317360;-79
2024/03/31 08:52:27;;;;;;;15.95;6.70;;;;;;;;;;4342923;32;317855;-79
2024/03/31 08:54:57;;;;;;;21.45;6.80;;;;;;;;;;4340159;32;318324;-79
2024/03/31 08:57:23;;;;;;;16.30;6.10;;;;;;;;;;4350691;32;317826;-79
2024/03/31 08:59:50;;;;;;;19.40;7.22;;;;;;;;;;4352110;32;318345;-79
2024/03/31 09:02:22;;;;;;;17.58;6.32;;;;;;;;;;4335350;32;318439;-80
2024/03/31 09:04:50;;;;;;;13.40;5.28;;;;;;;;;;4359918;32;318376;-79
2024/03/31 09:07:17;;;;;;;15.38;5.75;;;;;;;;;;4357009;32;318244;-80
2024/03/31 09:09:46;;;;;;;12.32;4.60;;;;;;;;;;4357854;32;316441;-79
2024/03/31 09:12:12;;;;;;;12.75;4.93;;;;;;;;;;4335709;32;316652;-80
2024/03/31 09:14:39;;;;;;;18.92;5.53;;;;;;;;;;4351702;32;355154;-81
2024/03/31 09:17:06;;;;;;;15.43;5.78;;;;;;;;;;4343561;32;316782;-80
2024/03/31 09:19:33;;;;;;;14.55;4.57;;;;;;;;;;4342706;32;353136;-76
2024/03/31 09:21:59;;;;;;;16.33;4.50;;;;;;;;;;4331504;32;318591;-76
2024/03/31 09:24:28;;;;;;;13.57;5.20;;;;;;;;;;4342848;32;347761;-76
2024/03/31 09:26:54;;;;;;;34.88;5.93;;;;;;;;;;4329470;32;318259;-76
2024/03/31 09:29:21;;;;;;;12.25;4.72;;;;;;;;;;4350783;32;318490;-76
2024/03/31 09:31:48;;;;;;;12.57;4.32;;;;;;;;;;4349280;32;317967;-76
2024/03/31 09:34:15;;;;;;;17.15;4.70;;;;;;;;;;4332023;32;318451;-76
2024/03/31 09:36:44;;;;;;;13.80;4.18;;;;;;;;;;4350134;32;318345;-76
2024/03/31 09:39:14;;;;;;;11.20;3.80;;;;;;;;;;4331748;32;318236;-76
2024/03/31 09:41:43;;;;;;;14.00;3.92;;;;;;;;;;4332914;32;318284;-76
2024/03/31 09:44:11;;;;;;;13.52;3.35;;;;;;;;;;4318748;32;318488;-76
2024/03/31 09:46:39;;;;;;;12.43;3.62;;;;;;;;;;4334597;32;318276;-76
2024/03/31 09:49:11;;;;;;;9.95;4.00;;;;;;;;;;4325009;32;318427;-76
2024/03/31 09:51:41;;;;;;;12.52;3.45;;;;;;;;;;4334412;32;317205;-76
2024/03/31 09:54:14;;;;;;;10.43;3.40;;;;;;;;;;4318867;32;318217;-76
2024/03/31 09:56:51;;;;;;;10.63;3.42;;;;;;;;;;4332895;32;337641;-76
2024/03/31 09:59:24;;;;;;;9.50;3.30;;;;;;;;;;4322357;32;418934;-79
2024/03/31 10:01:52;;;;;;;16.27;4.25;;;;;;;;;;4334268;32;316703;-77
2024/03/31 10:04:26;;;;;;;12.23;3.87;;;;;;;;;;4314621;32;418807;-77
2024/03/31 10:06:53;;;;;;;19.87;3.92;;;;;;;;;;4327814;32;317724;-78
2024/03/31 10:09:20;;;;;;;6.82;3.60;;;;;;;;;;4326454;32;418615;-79
2024/03/31 10:11:48;;;;;;;16.65;3.65;;;;;;;;;;4333752;32;317414;-76
2024/03/31 10:14:17;;;;;;;16.37;4.00;;;;;;;;;;4329030;32;318441;-79
2024/03/31 10:16:44;;;;;;;20.40;4.82;;;;;;;;;;4348309;32;318461;-79
2024/03/31 10:19:16;;;;;;;14.98;3.85;;;;;;;;;;4338048;32;318511;-77
2024/03/31 10:21:43;;;;;;;12.15;4.10;;;;;;;;;;4347480;32;318558;-78
2024/03/31 10:24:13;;;;;;;9.35;3.08;;;;;;;;;;4325847;32;318166;-77
2024/03/31 10:26:39;;;;;;;13.40;4.90;;;;;;;;;;4338369;32;317116;-77
2024/03/31 10:29:08;;;;;;;14.05;3.45;;;;;;;;;;4337049;32;318235;-77
2024/03/31 10:31:35;;;;;;;11.88;3.45;;;;;;;;;;4348334;32;318295;-79
2024/03/31 10:36:45;;;;;;;13.77;3.08;;;;;;;;;;4347962;32;317955;-80
2024/03/31 10:39:10;;;;;;;9.75;3.85;;;;;;;;;;4317830;32;318084;-79
2024/03/31 10:41:37;;;;;;;15.73;3.10;;;;;;;;;;4347820;32;340671;-79
2024/03/31 10:44:09;;;;;;;10.18;3.10;;;;;;;;;;4334333;32;318260;-78
2024/03/31 10:46:36;;;;;;;12.20;3.65;;;;;;;;;;4344375;32;317578;-78
2024/03/31 10:49:02;;;;;;;8.32;3.28;;;;;;;;;;4327949;32;353757;-78
2024/03/31 10:51:30;;;;;;;23.33;3.83;;;;;;;;;;4340299;32;316911;-78
2024/03/31 10:53:56;;;;;;;12.60;4.28;;;;;;;;;;4326164;32;318367;-77
2024/03/31 10:56:27;;;;;;;17.08;4.60;;;;;;;;;;4335969;32;317584;-78
2024/03/31 10:58:52;;;;;;;14.68;4.28;;;;;;;;;;4333248;32;355397;-79
2024/03/31 11:01:20;;;;;;;10.68;3.90;;;;;;;;;;4346270;32;317820;-78
2024/03/31 11:03:48;;;;;;;14.52;3.90;;;;;;;;;;4347592;32;318392;-76
2024/03/31 11:06:18;;;;;;;18.40;4.00;;;;;;;;;;4326768;32;333368;-78
2024/03/31 11:08:44;;;;;;;19.77;3.25;;;;;;;;;;4347122;32;318283;-78
2024/03/31 11:11:11;;;;;;;15.95;4.35;;;;;;;;;;4337029;32;318321;-78
2024/03/31 11:13:37;;;;;;;12.05;3.55;;;;;;;;;;4348027;32;318414;-78
2024/03/31 11:16:06;;;;;;;11.30;3.03;;;;;;;;;;4333473;32;318378;-77
2024/03/31 11:18:36;;;;;;;11.12;2.80;;;;;;;;;;4345070;32;318567;-79
2024/03/31 11:21:08;;;;;;;10.70;3.72;;;;;;;;;;4324757;32;330188;-78
2024/03/31 11:23:37;;;;;;;11.88;2.85;;;;;;;;;;4342958;32;317644;-78
2024/03/31 11:26:08;;;;;;;6.80;2.08;;;;;;;;;;4332819;32;317754;-77
2024/03/31 11:28:35;;;;;;;12.13;2.22;;;;;;;;;;4346669;32;316827;-77
2024/03/31 11:31:02;;;;;;;10.80;2.97;;;;;;;;;;4322343;32;318038;-78
2024/03/31 11:33:30;;;;;;;13.15;3.03;;;;;;;;;;4333143;32;318275;-78
2024/03/31 11:36:00;;;;;;;10.15;3.17;;;;;;;;;;4330997;32;319602;-78
2024/03/31 11:38:27;;;;;;;12.55;3.47;;;;;;;;;;4328593;32;318345;-78
2024/03/31 11:40:55;;;;;;;15.93;2.92;;;;;;;;;;4323234;32;318393;-78
2024/03/31 11:43:21;;;;;;;11.27;2.40;;;;;;;;;;4333282;32;318320;-78
2024/03/31 11:45:49;;;;;;;17.37;3.15;;;;;;;;;;4332516;33;317580;-78
2024/03/31 11:48:15;;;;;;;10.30;4.07;;;;;;;;;;4297899;32;318358;-78
2024/03/31 11:50:45;;;;;;;10.88;3.40;;;;;;;;;;4340455;32;318397;-78
2024/03/31 11:53:12;;;;;;;20.15;3.42;;;;;;;;;;4322649;32;318547;-78
2024/03/31 11:55:41;;;;;;;7.47;3.08;;;;;;;;;;4337101;32;317564;-79
2024/03/31 11:58:08;;;;;;;17.52;3.85;;;;;;;;;;4316021;33;317499;-78
2024/03/31 12:00:36;;;;;;;24.90;3.20;;;;;;;;;;4332030;33;318194;-78
2024/03/31 12:03:05;;;;;;;10.02;3.37;;;;;;;;;;4321011;33;318244;-78
2024/03/31 12:05:34;;;;;;;14.80;3.95;;;;;;;;;;4333263;32;318415;-78
2024/03/31 12:08:02;;;;;;;10.55;2.85;;;;;;;;;;4320835;32;352456;-78
2024/03/31 12:10:30;;;;;;;28.75;4.37;;;;;;;;;;4327536;32;331729;-78
2024/03/31 12:12:58;;;;;;;14.27;3.58;;;;;;;;;;4318390;32;318356;-78
2024/03/31 12:15:25;;;;;;;21.37;3.15;;;;;;;;;;4335360;32;319729;-79
2024/03/31 12:17:57;;;;;;;16.25;3.47;;;;;;;;;;4338140;32;317734;-79
2024/03/31 12:20:25;;;;;;;9.88;3.87;;;;;;;;;;4321350;32;419035;-79
2024/03/31 12:22:52;;;;;;;15.07;3.83;;;;;;;;;;4343038;32;317240;-79
2024/03/31 12:25:20;;;;;;;20.20;4.37;;;;;;;;;;4320652;32;417663;-79
2024/03/31 12:27:50;;;;;;;32.83;4.18;;;;;;;;;;4333448;32;318351;-79
2024/03/31 12:30:18;;;;;;;16.75;3.47;;;;;;;;;;4307600;32;317788;-79
2024/03/31 12:32:46;;;;;;;27.55;4.85;;;;;;;;;;4326650;32;318984;-79
2024/03/31 12:35:13;;;;;;;13.60;4.03;;;;;;;;;;4326051;32;318141;-79
2024/03/31 12:37:39;;;;;;;27.37;3.78;;;;;;;;;;4333169;32;326899;-78
2024/03/31 12:40:09;;;;;;;19.30;3.83;;;;;;;;;;4317493;32;318479;-78
2024/03/31 12:42:39;;;;;;;18.00;3.87;;;;;;;;;;4333511;32;318369;-78
2024/03/31 12:45:08;;;;;;;17.73;5.03;;;;;;;;;;4319959;32;318337;-78
2024/03/31 12:47:34;;;;;;;22.00;5.07;;;;;;;;;;4332817;32;319037;-78
2024/03/31 12:50:02;;;;;;;24.42;4.32;;;;;;;;;;4323462;32;318884;-79
2024/03/31 12:52:28;;;;;;;29.45;5.20;;;;;;;;;;4327132;32;318600;-78
2024/03/31 12:54:55;;;;;;;32.30;4.50;;;;;;;;;;4323334;32;318376;-78
2024/03/31 12:57:21;;;;;;;28.70;5.32;;;;;;;;;;4334172;32;318446;-78
2024/03/31 12:59:48;;;;;;;16.20;5.70;;;;;;;;;;4332945;32;318088;-78
2024/03/31 13:02:16;;;;;;;26.48;5.28;;;;;;;;;;4317471;32;318821;-78
2024/03/31 13:04:44;;;;;;;18.70;5.93;;;;;;;;;;4333822;32;318465;-79
2024/03/31 13:07:10;;;;;;;24.63;5.65;;;;;;;;;;4324153;32;318938;-77
2024/03/31 13:09:38;;;;;;;33.83;5.78;;;;;;;;;;4331706;32;318266;-77
2024/03/31 13:12:04;;;;;;;39.70;7.05;;;;;;;;;;4318966;32;318361;-78
2024/03/31 13:14:31;;;;;;;47.17;7.68;;;;;;;;;;4332991;32;318258;-78
2024/03/31 13:16:57;;;;;;;51.28;6.93;;;;;;;;;;4325714;32;318286;-78
2024/03/31 13:19:26;;;;;;;56.00;6.87;;;;;;;;;;4349727;32;318355;-78
2024/03/31 13:21:52;;;;;;;48.63;7.78;;;;;;;;;;4349845;32;318145;-78
2024/03/31 13:24:19;;;;;;;76.43;12.85;;;;;;;;;;4330276;32;373896;-78
2024/03/31 13:26:45;;;;;;;61.45;11.55;;;;;;;;;;4347591;32;318719;-78
2024/03/31 13:29:11;;;;;;;85.45;12.37;;;;;;;;;;4339615;32;319445;-78
2024/03/31 13:31:39;;;;;;;65.65;13.27;;;;;;;;;;4349228;32;319282;-79
2024/03/31 13:34:06;;;;;;;87.85;11.60;;;;;;;;;;4332475;32;319477;-78
2024/03/31 13:36:34;;;;;;;63.92;11.95;;;;;;;;;;4348504;32;319190;-78
2024/03/31 13:39:03;;;;;;;106.18;13.98;;;;;;;;;;4337512;32;319389;-78
2024/03/31 13:41:28;;;;;;;79.55;12.15;;;;;;;;;;4348072;32;320451;-78
2024/03/31 13:43:55;;;;;;;88.15;14.68;;;;;;;;;;4337732;32;318561;-78
2024/03/31 13:46:21;;;;;;;76.60;12.27;;;;;;;;;;4341376;32;319399;-78
2024/03/31 13:48:49;;;;;;;85.72;14.07;;;;;;;;;;4349193;32;319353;-78
2024/03/31 13:51:14;;;;;;;80.00;13.48;;;;;;;;;;4322651;32;338379;-78
2024/03/31 13:53:44;;;;;;;85.05;14.55;;;;;;;;;;4336191;32;328869;-78
2024/03/31 13:56:11;;;;;;;95.70;13.65;;;;;;;;;;4332308;32;319965;-79
2024/03/31 13:58:39;;;;;;;80.78;13.68;;;;;;;;;;4339902;32;337777;-78
2024/03/31 14:01:04;;;;;;;74.32;13.57;;;;;;;;;;4336599;32;355869;-78
2024/03/31 14:03:31;;;;;;;102.72;15.40;;;;;;;;;;4346363;32;330625;-80
2024/03/31 14:05:57;;;;;;;94.40;16.15;;;;;;;;;;4339562;32;321128;-80
2024/03/31 14:08:27;;;;;;;115.05;17.40;;;;;;;;;;4342346;32;318783;-80
2024/03/31 14:10:54;;;;;;;108.85;15.43;;;;;;;;;;4338614;32;320158;-81
2024/03/31 14:13:23;;;;;;;71.62;13.77;;;;;;;;;;4353376;32;320433;-78
2024/03/31 14:15:49;;;;;;;96.20;17.52;;;;;;;;;;4351788;32;318827;-79
2024/03/31 14:18:15;;;;;;;96.45;15.43;;;;;;;;;;4331774;32;336186;-79
2024/03/31 14:20:41;;;;;;;87.55;17.00;;;;;;;;;;4353378;32;319446;-79